sensor_id;sensor_type;location;lat;lon;timestamp;P1;durP1;ratioP1;P2;durP2;ratioP2
30173;SDS011;16985;50.814;8.530;2023-07-29T00:02:18;3.05;;;1.33;;
30173;SDS011;16985;50.814;8.530;2023-07-29T00:04:43;2.28;;;1.40;;
30173;SDS011;16985;50.814;8.530;2023-07-29T00:07:09;6.75;;;1.17;;
30173;SDS011;16985;50.814;8.530;2023-07-29T00:09:35;1.83;;;1.45;;
30173;SDS011;16985;50.814;8.530;2023-07-29T00:12:01;4.05;;;1.30;;
30173;SDS011;16985;50.814;8.530;2023-07-29T00:14:26;1.88;;;1.33;;
30173;SDS011;16985;50.814;8.530;2023-07-29T00:16:52;2.75;;;1.30;;
30173;SDS011;16985;50.814;8.530;2023-07-29T00:19:18;1.63;;;1.52;;
30173;SDS011;16985;50.814;8.530;2023-07-29T00:21:45;1.75;;;1.50;;
30173;SDS011;16985;50.814;8.530;2023-07-29T00:24:10;1.58;;;1.48;;
30173;SDS011;16985;50.814;8.530;2023-07-29T00:26:36;1.70;;;1.60;;
30173;SDS011;16985;50.814;8.530;2023-07-29T00:29:03;2.83;;;1.23;;
30173;SDS011;16985;50.814;8.530;2023-07-29T00:31:28;1.48;;;1.38;;
30173;SDS011;16985;50.814;8.530;2023-07-29T00:33:56;1.50;;;1.40;;
30173;SDS011;16985;50.814;8.530;2023-07-29T00:36:23;3.70;;;1.40;;
30173;SDS011;16985;50.814;8.530;2023-07-29T00:38:49;1.67;;;1.58;;
30173;SDS011;16985;50.814;8.530;2023-07-29T00:41:15;1.50;;;1.40;;
30173;SDS011;16985;50.814;8.530;2023-07-29T00:43:41;1.30;;;1.20;;
30173;SDS011;16985;50.814;8.530;2023-07-29T00:46:08;2.28;;;1.50;;
30173;SDS011;16985;50.814;8.530;2023-07-29T00:48:35;1.90;;;1.55;;
30173;SDS011;16985;50.814;8.530;2023-07-29T00:51:01;1.60;;;1.50;;
30173;SDS011;16985;50.814;8.530;2023-07-29T00:53:27;1.30;;;1.20;;
30173;SDS011;16985;50.814;8.530;2023-07-29T00:55:53;1.60;;;1.50;;
30173;SDS011;16985;50.814;8.530;2023-07-29T00:58:19;2.72;;;1.50;;
30173;SDS011;16985;50.814;8.530;2023-07-29T01:00:46;1.65;;;1.55;;
30173;SDS011;16985;50.814;8.530;2023-07-29T01:03:12;1.80;;;1.60;;
30173;SDS011;16985;50.814;8.530;2023-07-29T01:05:50;1.83;;;1.73;;
30173;SDS011;16985;50.814;8.530;2023-07-29T01:16:55;1.77;;;1.50;;
30173;SDS011;16985;50.814;8.530;2023-07-29T01:20:12;1.58;;;1.48;;
30173;SDS011;16985;50.814;8.530;2023-07-29T01:22:33;2.60;;;1.65;;
30173;SDS011;16985;50.814;8.530;2023-07-29T01:25:01;1.88;;;1.42;;
30173;SDS011;16985;50.814;8.530;2023-07-29T01:27:27;2.38;;;2.17;;
30173;SDS011;16985;50.814;8.530;2023-07-29T01:29:54;2.33;;;2.13;;
30173;SDS011;16985;50.814;8.530;2023-07-29T01:35:00;3.53;;;2.03;;
30173;SDS011;16985;50.814;8.530;2023-07-29T01:37:51;2.50;;;1.80;;
30173;SDS011;16985;50.814;8.530;2023-07-29T01:40:22;2.05;;;1.60;;
30173;SDS011;16985;50.814;8.530;2023-07-29T01:42:52;1.65;;;1.55;;
30173;SDS011;16985;50.814;8.530;2023-07-29T01:45:18;3.22;;;1.50;;
30173;SDS011;16985;50.814;8.530;2023-07-29T01:47:44;5.60;;;1.42;;
30173;SDS011;16985;50.814;8.530;2023-07-29T01:50:10;2.75;;;1.52;;
30173;SDS011;16985;50.814;8.530;2023-07-29T01:52:36;1.83;;;1.70;;
30173;SDS011;16985;50.814;8.530;2023-07-29T01:55:02;4.93;;;1.52;;
30173;SDS011;16985;50.814;8.530;2023-07-29T01:57:28;2.90;;;1.60;;
30173;SDS011;16985;50.814;8.530;2023-07-29T01:59:54;1.60;;;1.50;;
30173;SDS011;16985;50.814;8.530;2023-07-29T02:02:20;2.08;;;1.88;;
30173;SDS011;16985;50.814;8.530;2023-07-29T02:04:46;2.17;;;1.65;;
30173;SDS011;16985;50.814;8.530;2023-07-29T02:07:16;2.13;;;1.63;;
30173;SDS011;16985;50.814;8.530;2023-07-29T02:09:44;1.88;;;1.77;;
30173;SDS011;16985;50.814;8.530;2023-07-29T02:12:10;1.77;;;1.67;;
30173;SDS011;16985;50.814;8.530;2023-07-29T02:14:38;2.53;;;1.67;;
30173;SDS011;16985;50.814;8.530;2023-07-29T02:17:04;2.05;;;1.70;;
30173;SDS011;16985;50.814;8.530;2023-07-29T02:19:30;2.70;;;1.73;;
30173;SDS011;16985;50.814;8.530;2023-07-29T02:21:56;1.52;;;1.42;;
30173;SDS011;16985;50.814;8.530;2023-07-29T02:24:23;1.73;;;1.50;;
30173;SDS011;16985;50.814;8.530;2023-07-29T02:26:48;2.05;;;1.77;;
30173;SDS011;16985;50.814;8.530;2023-07-29T02:29:14;3.80;;;2.03;;
30173;SDS011;16985;50.814;8.530;2023-07-29T02:31:40;4.10;;;1.90;;
30173;SDS011;16985;50.814;8.530;2023-07-29T02:34:06;2.65;;;1.70;;
30173;SDS011;16985;50.814;8.530;2023-07-29T02:36:31;1.52;;;1.42;;
30173;SDS011;16985;50.814;8.530;2023-07-29T02:38:58;2.72;;;1.88;;
30173;SDS011;16985;50.814;8.530;2023-07-29T02:41:23;4.28;;;1.85;;
30173;SDS011;16985;50.814;8.530;2023-07-29T02:43:50;2.00;;;1.80;;
30173;SDS011;16985;50.814;8.530;2023-07-29T02:46:17;2.00;;;1.90;;
30173;SDS011;16985;50.814;8.530;2023-07-29T02:48:44;2.25;;;2.05;;
30173;SDS011;16985;50.814;8.530;2023-07-29T02:51:10;2.53;;;2.22;;
30173;SDS011;16985;50.814;8.530;2023-07-29T02:53:36;2.83;;;1.98;;
30173;SDS011;16985;50.814;8.530;2023-07-29T02:56:02;3.05;;;1.92;;
30173;SDS011;16985;50.814;8.530;2023-07-29T02:58:29;2.97;;;1.92;;
30173;SDS011;16985;50.814;8.530;2023-07-29T03:01:04;5.15;;;2.22;;
30173;SDS011;16985;50.814;8.530;2023-07-29T03:03:31;2.75;;;2.30;;
30173;SDS011;16985;50.814;8.530;2023-07-29T03:06:02;2.40;;;2.00;;
30173;SDS011;16985;50.814;8.530;2023-07-29T03:08:29;2.72;;;2.20;;
30173;SDS011;16985;50.814;8.530;2023-07-29T03:10:56;2.47;;;1.98;;
30173;SDS011;16985;50.814;8.530;2023-07-29T03:13:22;3.60;;;2.00;;
30173;SDS011;16985;50.814;8.530;2023-07-29T03:15:48;1.85;;;1.75;;
30173;SDS011;16985;50.814;8.530;2023-07-29T03:18:14;2.70;;;1.75;;
30173;SDS011;16985;50.814;8.530;2023-07-29T03:20:41;2.40;;;2.05;;
30173;SDS011;16985;50.814;8.530;2023-07-29T03:23:07;3.15;;;2.28;;
30173;SDS011;16985;50.814;8.530;2023-07-29T03:25:32;2.40;;;2.20;;
30173;SDS011;16985;50.814;8.530;2023-07-29T03:27:58;2.92;;;2.20;;
30173;SDS011;16985;50.814;8.530;2023-07-29T03:30:25;5.03;;;2.20;;
30173;SDS011;16985;50.814;8.530;2023-07-29T03:32:52;3.17;;;2.30;;
30173;SDS011;16985;50.814;8.530;2023-07-29T03:35:18;5.00;;;2.40;;
30173;SDS011;16985;50.814;8.530;2023-07-29T03:37:44;2.70;;;2.08;;
30173;SDS011;16985;50.814;8.530;2023-07-29T03:40:10;3.38;;;2.03;;
30173;SDS011;16985;50.814;8.530;2023-07-29T03:42:36;4.15;;;2.55;;
30173;SDS011;16985;50.814;8.530;2023-07-29T03:45:02;5.60;;;2.67;;
30173;SDS011;16985;50.814;8.530;2023-07-29T03:47:28;2.95;;;2.65;;
30173;SDS011;16985;50.814;8.530;2023-07-29T03:49:55;3.92;;;3.10;;
30173;SDS011;16985;50.814;8.530;2023-07-29T03:52:22;4.32;;;2.90;;
30173;SDS011;16985;50.814;8.530;2023-07-29T03:54:47;3.10;;;2.80;;
30173;SDS011;16985;50.814;8.530;2023-07-29T03:57:14;4.07;;;2.90;;
30173;SDS011;16985;50.814;8.530;2023-07-29T03:59:39;4.63;;;2.90;;
30173;SDS011;16985;50.814;8.530;2023-07-29T04:02:05;3.85;;;2.80;;
30173;SDS011;16985;50.814;8.530;2023-07-29T04:04:31;3.90;;;2.70;;
30173;SDS011;16985;50.814;8.530;2023-07-29T04:06:57;3.70;;;2.97;;
30173;SDS011;16985;50.814;8.530;2023-07-29T04:09:23;3.00;;;2.70;;
30173;SDS011;16985;50.814;8.530;2023-07-29T04:11:49;3.97;;;2.67;;
30173;SDS011;16985;50.814;8.530;2023-07-29T04:14:16;2.97;;;2.47;;
30173;SDS011;16985;50.814;8.530;2023-07-29T04:16:42;2.42;;;2.22;;
30173;SDS011;16985;50.814;8.530;2023-07-29T04:19:08;2.70;;;2.50;;
30173;SDS011;16985;50.814;8.530;2023-07-29T04:21:34;4.50;;;2.90;;
30173;SDS011;16985;50.814;8.530;2023-07-29T04:23:59;3.40;;;3.10;;
30173;SDS011;16985;50.814;8.530;2023-07-29T04:26:26;3.28;;;2.85;;
30173;SDS011;16985;50.814;8.530;2023-07-29T04:28:52;3.63;;;2.50;;
30173;SDS011;16985;50.814;8.530;2023-07-29T04:31:17;3.22;;;2.88;;
30173;SDS011;16985;50.814;8.530;2023-07-29T04:33:43;3.08;;;2.80;;
30173;SDS011;16985;50.814;8.530;2023-07-29T04:36:10;3.30;;;3.00;;
30173;SDS011;16985;50.814;8.530;2023-07-29T04:38:37;3.53;;;3.13;;
30173;SDS011;16985;50.814;8.530;2023-07-29T04:41:03;3.73;;;2.43;;
30173;SDS011;16985;50.814;8.530;2023-07-29T04:43:32;3.38;;;3.08;;
30173;SDS011;16985;50.814;8.530;2023-07-29T04:45:58;6.70;;;3.35;;
30173;SDS011;16985;50.814;8.530;2023-07-29T04:48:24;3.60;;;3.17;;
30173;SDS011;16985;50.814;8.530;2023-07-29T04:50:50;3.47;;;3.17;;
30173;SDS011;16985;50.814;8.530;2023-07-29T04:53:15;3.28;;;2.95;;
30173;SDS011;16985;50.814;8.530;2023-07-29T04:55:42;3.72;;;3.13;;
30173;SDS011;16985;50.814;8.530;2023-07-29T04:58:08;6.47;;;3.05;;
30173;SDS011;16985;50.814;8.530;2023-07-29T05:00:35;6.95;;;2.78;;
30173;SDS011;16985;50.814;8.530;2023-07-29T05:03:02;3.13;;;2.83;;
30173;SDS011;16985;50.814;8.530;2023-07-29T05:05:28;4.60;;;2.95;;
30173;SDS011;16985;50.814;8.530;2023-07-29T05:07:54;5.43;;;2.90;;
30173;SDS011;16985;50.814;8.530;2023-07-29T05:10:20;3.80;;;3.50;;
30173;SDS011;16985;50.814;8.530;2023-07-29T05:12:46;5.18;;;3.00;;
30173;SDS011;16985;50.814;8.530;2023-07-29T05:15:12;3.40;;;3.10;;
30173;SDS011;16985;50.814;8.530;2023-07-29T05:17:38;3.40;;;3.10;;
30173;SDS011;16985;50.814;8.530;2023-07-29T05:20:04;3.13;;;2.83;;
30173;SDS011;16985;50.814;8.530;2023-07-29T05:22:30;3.33;;;2.70;;
30173;SDS011;16985;50.814;8.530;2023-07-29T05:24:56;4.47;;;3.17;;
30173;SDS011;16985;50.814;8.530;2023-07-29T05:27:22;3.90;;;2.45;;
30173;SDS011;16985;50.814;8.530;2023-07-29T05:29:48;3.08;;;2.78;;
30173;SDS011;16985;50.814;8.530;2023-07-29T05:32:14;5.80;;;2.70;;
30173;SDS011;16985;50.814;8.530;2023-07-29T05:34:41;5.10;;;2.92;;
30173;SDS011;16985;50.814;8.530;2023-07-29T05:37:07;3.20;;;2.90;;
30173;SDS011;16985;50.814;8.530;2023-07-29T05:39:33;2.65;;;2.38;;
30173;SDS011;16985;50.814;8.530;2023-07-29T05:41:59;2.72;;;2.53;;
30173;SDS011;16985;50.814;8.530;2023-07-29T05:44:27;3.53;;;2.70;;
30173;SDS011;16985;50.814;8.530;2023-07-29T05:49:21;3.10;;;2.80;;
30173;SDS011;16985;50.814;8.530;2023-07-29T05:51:48;3.25;;;2.83;;
30173;SDS011;16985;50.814;8.530;2023-07-29T05:54:15;4.30;;;2.40;;
30173;SDS011;16985;50.814;8.530;2023-07-29T05:56:43;2.88;;;2.53;;
30173;SDS011;16985;50.814;8.530;2023-07-29T05:59:08;2.65;;;2.20;;
30173;SDS011;16985;50.814;8.530;2023-07-29T06:01:34;3.58;;;2.53;;
30173;SDS011;16985;50.814;8.530;2023-07-29T06:04:00;2.92;;;2.47;;
30173;SDS011;16985;50.814;8.530;2023-07-29T06:06:26;3.35;;;3.05;;
30173;SDS011;16985;50.814;8.530;2023-07-29T06:08:52;5.97;;;2.47;;
30173;SDS011;16985;50.814;8.530;2023-07-29T06:11:18;2.85;;;2.08;;
30173;SDS011;16985;50.814;8.530;2023-07-29T06:13:44;5.43;;;2.20;;
30173;SDS011;16985;50.814;8.530;2023-07-29T06:16:13;2.83;;;2.42;;
30173;SDS011;16985;50.814;8.530;2023-07-29T06:18:39;2.40;;;2.20;;
30173;SDS011;16985;50.814;8.530;2023-07-29T06:21:05;2.08;;;1.88;;
30173;SDS011;16985;50.814;8.530;2023-07-29T06:23:33;2.80;;;2.00;;
30173;SDS011;16985;50.814;8.530;2023-07-29T06:25:59;2.78;;;2.20;;
30173;SDS011;16985;50.814;8.530;2023-07-29T06:28:25;2.67;;;2.03;;
30173;SDS011;16985;50.814;8.530;2023-07-29T06:30:52;2.40;;;2.10;;
30173;SDS011;16985;50.814;8.530;2023-07-29T06:33:18;1.92;;;1.83;;
30173;SDS011;16985;50.814;8.530;2023-07-29T06:35:44;3.33;;;2.40;;
30173;SDS011;16985;50.814;8.530;2023-07-29T06:38:09;1.77;;;1.67;;
30173;SDS011;16985;50.814;8.530;2023-07-29T06:40:35;4.82;;;2.35;;
30173;SDS011;16985;50.814;8.530;2023-07-29T06:43:01;2.28;;;2.08;;
30173;SDS011;16985;50.814;8.530;2023-07-29T06:45:27;2.05;;;1.77;;
30173;SDS011;16985;50.814;8.530;2023-07-29T06:47:53;2.88;;;1.83;;
30173;SDS011;16985;50.814;8.530;2023-07-29T06:50:19;1.80;;;1.70;;
30173;SDS011;16985;50.814;8.530;2023-07-29T06:52:45;2.35;;;1.75;;
30173;SDS011;16985;50.814;8.530;2023-07-29T06:55:10;2.42;;;1.67;;
30173;SDS011;16985;50.814;8.530;2023-07-29T06:57:36;2.20;;;1.67;;
30173;SDS011;16985;50.814;8.530;2023-07-29T07:00:03;3.65;;;1.73;;
30173;SDS011;16985;50.814;8.530;2023-07-29T07:02:29;1.92;;;1.48;;
30173;SDS011;16985;50.814;8.530;2023-07-29T07:04:55;2.08;;;1.88;;
30173;SDS011;16985;50.814;8.530;2023-07-29T07:07:21;2.00;;;1.80;;
30173;SDS011;16985;50.814;8.530;2023-07-29T07:09:47;2.88;;;1.90;;
30173;SDS011;16985;50.814;8.530;2023-07-29T07:12:12;2.08;;;1.88;;
30173;SDS011;16985;50.814;8.530;2023-07-29T07:14:38;8.88;;;2.20;;
30173;SDS011;16985;50.814;8.530;2023-07-29T07:17:04;1.80;;;1.70;;
30173;SDS011;16985;50.814;8.530;2023-07-29T07:19:30;3.90;;;1.73;;
30173;SDS011;16985;50.814;8.530;2023-07-29T07:21:56;2.08;;;1.65;;
30173;SDS011;16985;50.814;8.530;2023-07-29T07:24:21;4.10;;;1.90;;
30173;SDS011;16985;50.814;8.530;2023-07-29T07:26:47;2.15;;;1.77;;
30173;SDS011;16985;50.814;8.530;2023-07-29T07:29:14;5.63;;;1.75;;
30173;SDS011;16985;50.814;8.530;2023-07-29T07:31:40;2.42;;;1.95;;
30173;SDS011;16985;50.814;8.530;2023-07-29T07:34:05;3.28;;;1.70;;
30173;SDS011;16985;50.814;8.530;2023-07-29T07:36:31;3.40;;;1.80;;
30173;SDS011;16985;50.814;8.530;2023-07-29T07:38:57;3.35;;;1.88;;
30173;SDS011;16985;50.814;8.530;2023-07-29T07:41:23;2.85;;;1.70;;
30173;SDS011;16985;50.814;8.530;2023-07-29T07:43:49;2.35;;;2.15;;
30173;SDS011;16985;50.814;8.530;2023-07-29T07:46:15;4.13;;;1.60;;
30173;SDS011;16985;50.814;8.530;2023-07-29T07:48:40;1.95;;;1.73;;
30173;SDS011;16985;50.814;8.530;2023-07-29T07:51:13;2.00;;;1.80;;
30173;SDS011;16985;50.814;8.530;2023-07-29T07:53:39;1.95;;;1.60;;
30173;SDS011;16985;50.814;8.530;2023-07-29T07:56:05;1.65;;;1.55;;
30173;SDS011;16985;50.814;8.530;2023-07-29T07:58:32;2.20;;;1.85;;
30173;SDS011;16985;50.814;8.530;2023-07-29T08:01:02;3.03;;;1.73;;
30173;SDS011;16985;50.814;8.530;2023-07-29T08:03:33;4.63;;;1.73;;
30173;SDS011;16985;50.814;8.530;2023-07-29T08:05:59;1.48;;;1.38;;
30173;SDS011;16985;50.814;8.530;2023-07-29T08:08:25;1.98;;;1.77;;
30173;SDS011;16985;50.814;8.530;2023-07-29T08:10:52;3.40;;;2.10;;
30173;SDS011;16985;50.814;8.530;2023-07-29T08:13:19;1.50;;;1.40;;
30173;SDS011;16985;50.814;8.530;2023-07-29T08:15:49;1.60;;;1.50;;
30173;SDS011;16985;50.814;8.530;2023-07-29T08:18:16;3.50;;;2.53;;
30173;SDS011;16985;50.814;8.530;2023-07-29T08:20:58;3.33;;;1.80;;
30173;SDS011;16985;50.814;8.530;2023-07-29T08:23:29;1.95;;;1.75;;
30173;SDS011;16985;50.814;8.530;2023-07-29T08:25:56;5.03;;;1.95;;
30173;SDS011;16985;50.814;8.530;2023-07-29T08:28:28;2.08;;;1.92;;
30173;SDS011;16985;50.814;8.530;2023-07-29T08:30:55;2.53;;;1.88;;
30173;SDS011;16985;50.814;8.530;2023-07-29T08:33:21;2.55;;;2.22;;
30173;SDS011;16985;50.814;8.530;2023-07-29T08:35:47;2.85;;;2.05;;
30173;SDS011;16985;50.814;8.530;2023-07-29T08:38:13;2.50;;;2.30;;
30173;SDS011;16985;50.814;8.530;2023-07-29T08:40:42;2.47;;;2.03;;
30173;SDS011;16985;50.814;8.530;2023-07-29T08:43:16;2.65;;;2.45;;
30173;SDS011;16985;50.814;8.530;2023-07-29T08:45:44;3.75;;;2.80;;
30173;SDS011;16985;50.814;8.530;2023-07-29T08:48:11;2.97;;;2.67;;
30173;SDS011;16985;50.814;8.530;2023-07-29T08:50:41;3.92;;;3.53;;
30173;SDS011;16985;50.814;8.530;2023-07-29T08:53:09;3.45;;;3.10;;
30173;SDS011;16985;50.814;8.530;2023-07-29T08:55:35;3.75;;;3.45;;
30173;SDS011;16985;50.814;8.530;2023-07-29T08:58:02;3.70;;;3.40;;
30173;SDS011;16985;50.814;8.530;2023-07-29T09:00:28;5.93;;;4.82;;
30173;SDS011;16985;50.814;8.530;2023-07-29T09:02:54;6.05;;;3.97;;
30173;SDS011;16985;50.814;8.530;2023-07-29T09:05:21;4.33;;;3.93;;
30173;SDS011;16985;50.814;8.530;2023-07-29T09:07:48;4.82;;;3.97;;
30173;SDS011;16985;50.814;8.530;2023-07-29T09:10:16;4.70;;;4.15;;
30173;SDS011;16985;50.814;8.530;2023-07-29T09:12:48;4.80;;;3.88;;
30173;SDS011;16985;50.814;8.530;2023-07-29T09:15:25;4.50;;;4.10;;
30173;SDS011;16985;50.814;8.530;2023-07-29T09:17:56;4.43;;;4.03;;
30173;SDS011;16985;50.814;8.530;2023-07-29T09:20:28;18.55;;;4.32;;
30173;SDS011;16985;50.814;8.530;2023-07-29T09:22:55;4.35;;;3.50;;
30173;SDS011;16985;50.814;8.530;2023-07-29T09:25:25;3.85;;;3.45;;
30173;SDS011;16985;50.814;8.530;2023-07-29T09:27:52;5.00;;;3.25;;
30173;SDS011;16985;50.814;8.530;2023-07-29T09:30:23;3.22;;;2.92;;
30173;SDS011;16985;50.814;8.530;2023-07-29T09:32:54;3.38;;;3.05;;
30173;SDS011;16985;50.814;8.530;2023-07-29T09:35:21;2.60;;;2.40;;
30173;SDS011;16985;50.814;8.530;2023-07-29T09:37:47;2.90;;;1.77;;
30173;SDS011;16985;50.814;8.530;2023-07-29T09:40:14;2.30;;;2.10;;
30173;SDS011;16985;50.814;8.530;2023-07-29T09:42:49;2.42;;;1.98;;
30173;SDS011;16985;50.814;8.530;2023-07-29T09:45:25;2.67;;;2.13;;
30173;SDS011;16985;50.814;8.530;2023-07-29T09:47:52;3.78;;;2.25;;
30173;SDS011;16985;50.814;8.530;2023-07-29T09:50:23;1.52;;;1.42;;
30173;SDS011;16985;50.814;8.530;2023-07-29T09:52:50;2.88;;;1.75;;
30173;SDS011;16985;50.814;8.530;2023-07-29T09:55:20;2.05;;;1.85;;
30173;SDS011;16985;50.814;8.530;2023-07-29T09:57:57;2.38;;;2.13;;
30173;SDS011;16985;50.814;8.530;2023-07-29T10:00:27;4.72;;;2.05;;
30173;SDS011;16985;50.814;8.530;2023-07-29T10:02:54;3.03;;;2.17;;
30173;SDS011;16985;50.814;8.530;2023-07-29T10:05:22;2.28;;;1.85;;
30173;SDS011;16985;50.814;8.530;2023-07-29T10:07:50;2.20;;;1.88;;
30173;SDS011;16985;50.814;8.530;2023-07-29T10:10:17;2.10;;;1.90;;
30173;SDS011;16985;50.814;8.530;2023-07-29T10:12:43;2.70;;;2.15;;
30173;SDS011;16985;50.814;8.530;2023-07-29T10:15:09;2.90;;;1.90;;
30173;SDS011;16985;50.814;8.530;2023-07-29T10:17:36;2.38;;;1.80;;
30173;SDS011;16985;50.814;8.530;2023-07-29T10:20:04;3.58;;;1.77;;
30173;SDS011;16985;50.814;8.530;2023-07-29T10:22:37;4.63;;;1.65;;
30173;SDS011;16985;50.814;8.530;2023-07-29T10:25:18;2.95;;;2.00;;
30173;SDS011;16985;50.814;8.530;2023-07-29T10:27:49;3.25;;;1.77;;
30173;SDS011;16985;50.814;8.530;2023-07-29T10:30:19;2.80;;;2.00;;
30173;SDS011;16985;50.814;8.530;2023-07-29T10:32:45;2.25;;;1.98;;
30173;SDS011;16985;50.814;8.530;2023-07-29T10:35:12;3.85;;;1.77;;
30173;SDS011;16985;50.814;8.530;2023-07-29T10:37:38;2.47;;;2.00;;
30173;SDS011;16985;50.814;8.530;2023-07-29T10:40:05;2.13;;;1.92;;
30173;SDS011;16985;50.814;8.530;2023-07-29T10:42:36;5.20;;;2.40;;
30173;SDS011;16985;50.814;8.530;2023-07-29T10:45:36;2.50;;;2.30;;
30173;SDS011;16985;50.814;8.530;2023-07-29T10:48:09;3.15;;;2.78;;
30173;SDS011;16985;50.814;8.530;2023-07-29T10:50:37;2.60;;;2.40;;
30173;SDS011;16985;50.814;8.530;2023-07-29T10:53:04;2.95;;;2.65;;
30173;SDS011;16985;50.814;8.530;2023-07-29T10:55:33;3.33;;;2.72;;
30173;SDS011;16985;50.814;8.530;2023-07-29T10:58:13;3.05;;;2.30;;
30173;SDS011;16985;50.814;8.530;2023-07-29T11:00:43;2.90;;;2.67;;
30173;SDS011;16985;50.814;8.530;2023-07-29T11:03:11;3.08;;;2.50;;
30173;SDS011;16985;50.814;8.530;2023-07-29T11:05:43;2.67;;;2.40;;
30173;SDS011;16985;50.814;8.530;2023-07-29T11:08:29;3.00;;;2.70;;
30173;SDS011;16985;50.814;8.530;2023-07-29T11:11:03;3.35;;;2.63;;
30173;SDS011;16985;50.814;8.530;2023-07-29T11:13:34;2.80;;;2.53;;
30173;SDS011;16985;50.814;8.530;2023-07-29T11:16:02;6.55;;;3.00;;
30173;SDS011;16985;50.814;8.530;2023-07-29T11:18:33;2.80;;;2.50;;
30173;SDS011;16985;50.814;8.530;2023-07-29T11:21:01;4.85;;;2.60;;
30173;SDS011;16985;50.814;8.530;2023-07-29T11:23:30;3.55;;;2.83;;
30173;SDS011;16985;50.814;8.530;2023-07-29T11:25:58;3.53;;;3.22;;
30173;SDS011;16985;50.814;8.530;2023-07-29T11:28:25;3.20;;;2.90;;
30173;SDS011;16985;50.814;8.530;2023-07-29T11:30:52;4.10;;;3.13;;
30173;SDS011;16985;50.814;8.530;2023-07-29T11:33:23;3.07;;;2.80;;
30173;SDS011;16985;50.814;8.530;2023-07-29T11:35:53;5.18;;;2.90;;
30173;SDS011;16985;50.814;8.530;2023-07-29T11:38:20;13.18;;;3.97;;
30173;SDS011;16985;50.814;8.530;2023-07-29T11:40:53;6.07;;;3.28;;
30173;SDS011;16985;50.814;8.530;2023-07-29T11:43:25;3.70;;;3.40;;
30173;SDS011;16985;50.814;8.530;2023-07-29T11:45:51;4.80;;;3.20;;
30173;SDS011;16985;50.814;8.530;2023-07-29T11:48:18;3.88;;;3.15;;
30173;SDS011;16985;50.814;8.530;2023-07-29T11:50:53;3.58;;;3.00;;
30173;SDS011;16985;50.814;8.530;2023-07-29T11:55:49;4.85;;;3.10;;
30173;SDS011;16985;50.814;8.530;2023-07-29T11:58:17;5.55;;;2.90;;
30173;SDS011;16985;50.814;8.530;2023-07-29T12:00:43;3.45;;;2.80;;
30173;SDS011;16985;50.814;8.530;2023-07-29T12:03:12;4.95;;;3.75;;
30173;SDS011;16985;50.814;8.530;2023-07-29T12:05:40;3.22;;;2.67;;
30173;SDS011;16985;50.814;8.530;2023-07-29T12:08:06;2.45;;;2.10;;
30173;SDS011;16985;50.814;8.530;2023-07-29T12:10:34;2.70;;;2.25;;
30173;SDS011;16985;50.814;8.530;2023-07-29T12:13:01;2.80;;;2.50;;
30173;SDS011;16985;50.814;8.530;2023-07-29T12:17:55;2.45;;;2.10;;
30173;SDS011;16985;50.814;8.530;2023-07-29T12:20:22;2.72;;;2.50;;
30173;SDS011;16985;50.814;8.530;2023-07-29T12:22:56;2.65;;;2.22;;
30173;SDS011;16985;50.814;8.530;2023-07-29T12:25:26;2.43;;;2.10;;
30173;SDS011;16985;50.814;8.530;2023-07-29T12:27:52;2.75;;;1.90;;
30173;SDS011;16985;50.814;8.530;2023-07-29T12:30:21;3.53;;;2.20;;
30173;SDS011;16985;50.814;8.530;2023-07-29T12:32:48;3.92;;;1.88;;
30173;SDS011;16985;50.814;8.530;2023-07-29T12:35:13;3.80;;;1.92;;
30173;SDS011;16985;50.814;8.530;2023-07-29T12:37:40;4.22;;;2.03;;
30173;SDS011;16985;50.814;8.530;2023-07-29T12:40:29;5.65;;;1.92;;
30173;SDS011;16985;50.814;8.530;2023-07-29T12:42:55;2.40;;;2.20;;
30173;SDS011;16985;50.814;8.530;2023-07-29T12:45:21;3.05;;;2.10;;
30173;SDS011;16985;50.814;8.530;2023-07-29T12:47:53;2.38;;;1.92;;
30173;SDS011;16985;50.814;8.530;2023-07-29T12:50:19;2.78;;;2.20;;
30173;SDS011;16985;50.814;8.530;2023-07-29T12:52:46;2.40;;;2.10;;
30173;SDS011;16985;50.814;8.530;2023-07-29T12:55:12;2.33;;;2.05;;
30173;SDS011;16985;50.814;8.530;2023-07-29T12:57:41;1.92;;;1.60;;
30173;SDS011;16985;50.814;8.530;2023-07-29T13:00:08;1.67;;;1.58;;
30173;SDS011;16985;50.814;8.530;2023-07-29T13:02:35;3.40;;;1.40;;
30173;SDS011;16985;50.814;8.530;2023-07-29T13:05:01;1.73;;;1.40;;
30173;SDS011;16985;50.814;8.530;2023-07-29T13:07:26;1.50;;;1.30;;
30173;SDS011;16985;50.814;8.530;2023-07-29T13:09:52;4.20;;;1.60;;
30173;SDS011;16985;50.814;8.530;2023-07-29T13:12:18;1.60;;;1.38;;
30173;SDS011;16985;50.814;8.530;2023-07-29T13:14:44;1.15;;;1.00;;
30173;SDS011;16985;50.814;8.530;2023-07-29T13:17:10;5.25;;;1.20;;
30173;SDS011;16985;50.814;8.530;2023-07-29T13:19:35;1.55;;;1.30;;
30173;SDS011;16985;50.814;8.530;2023-07-29T13:22:01;1.80;;;1.52;;
30173;SDS011;16985;50.814;8.530;2023-07-29T13:24:27;1.75;;;1.20;;
30173;SDS011;16985;50.814;8.530;2023-07-29T13:26:53;1.40;;;1.05;;
30173;SDS011;16985;50.814;8.530;2023-07-29T13:29:19;2.45;;;1.40;;
30173;SDS011;16985;50.814;8.530;2023-07-29T13:31:44;3.55;;;1.33;;
30173;SDS011;16985;50.814;8.530;2023-07-29T13:34:10;2.13;;;1.50;;
30173;SDS011;16985;50.814;8.530;2023-07-29T13:36:36;1.40;;;1.30;;
30173;SDS011;16985;50.814;8.530;2023-07-29T13:39:02;1.10;;;1.00;;
30173;SDS011;16985;50.814;8.530;2023-07-29T13:41:28;1.10;;;1.00;;
30173;SDS011;16985;50.814;8.530;2023-07-29T13:43:54;2.30;;;1.10;;
30173;SDS011;16985;50.814;8.530;2023-07-29T13:46:19;1.02;;;0.80;;
30173;SDS011;16985;50.814;8.530;2023-07-29T13:48:46;1.90;;;1.20;;
30173;SDS011;16985;50.814;8.530;2023-07-29T13:51:12;1.10;;;1.00;;
30173;SDS011;16985;50.814;8.530;2023-07-29T13:53:38;1.58;;;1.13;;
30173;SDS011;16985;50.814;8.530;2023-07-29T13:56:04;1.45;;;1.00;;
30173;SDS011;16985;50.814;8.530;2023-07-29T13:58:30;2.63;;;1.48;;
30173;SDS011;16985;50.814;8.530;2023-07-29T14:00:55;1.95;;;1.30;;
30173;SDS011;16985;50.814;8.530;2023-07-29T14:03:21;1.02;;;0.93;;
30173;SDS011;16985;50.814;8.530;2023-07-29T14:05:47;1.67;;;1.17;;
30173;SDS011;16985;50.814;8.530;2023-07-29T14:08:13;1.42;;;1.08;;
30173;SDS011;16985;50.814;8.530;2023-07-29T14:10:39;0.73;;;0.73;;
30173;SDS011;16985;50.814;8.530;2023-07-29T14:13:04;1.38;;;1.00;;
30173;SDS011;16985;50.814;8.530;2023-07-29T14:15:30;1.35;;;0.98;;
30173;SDS011;16985;50.814;8.530;2023-07-29T14:17:57;3.73;;;1.00;;
30173;SDS011;16985;50.814;8.530;2023-07-29T14:20:23;0.77;;;0.75;;
30173;SDS011;16985;50.814;8.530;2023-07-29T14:22:49;0.98;;;0.88;;
30173;SDS011;16985;50.814;8.530;2023-07-29T14:25:15;3.65;;;1.10;;
30173;SDS011;16985;50.814;8.530;2023-07-29T14:27:41;1.42;;;1.00;;
30173;SDS011;16985;50.814;8.530;2023-07-29T14:30:06;1.58;;;0.85;;
30173;SDS011;16985;50.814;8.530;2023-07-29T14:32:33;1.50;;;0.95;;
30173;SDS011;16985;50.814;8.530;2023-07-29T14:34:59;1.00;;;0.90;;
30173;SDS011;16985;50.814;8.530;2023-07-29T14:37:29;1.20;;;1.10;;
30173;SDS011;16985;50.814;8.530;2023-07-29T14:39:56;2.00;;;0.90;;
30173;SDS011;16985;50.814;8.530;2023-07-29T14:42:23;1.10;;;1.00;;
30173;SDS011;16985;50.814;8.530;2023-07-29T14:44:49;0.98;;;0.90;;
30173;SDS011;16985;50.814;8.530;2023-07-29T14:47:15;1.25;;;1.15;;
30173;SDS011;16985;50.814;8.530;2023-07-29T14:49:41;1.30;;;1.13;;
30173;SDS011;16985;50.814;8.530;2023-07-29T14:52:07;1.30;;;1.20;;
30173;SDS011;16985;50.814;8.530;2023-07-29T14:54:33;3.20;;;1.15;;
30173;SDS011;16985;50.814;8.530;2023-07-29T14:56:58;1.17;;;0.90;;
30173;SDS011;16985;50.814;8.530;2023-07-29T14:59:24;2.22;;;1.17;;
30173;SDS011;16985;50.814;8.530;2023-07-29T15:01:50;1.17;;;1.08;;
30173;SDS011;16985;50.814;8.530;2023-07-29T15:04:16;3.05;;;1.20;;
30173;SDS011;16985;50.814;8.530;2023-07-29T15:06:42;1.83;;;1.25;;
30173;SDS011;16985;50.814;8.530;2023-07-29T15:09:08;1.55;;;1.20;;